Terminal Aerodrome Forecast
Issued by NWS Wilmington, OH

Current Version | Previous Version | Text Only | Print | Product List | Glossary Off
Versions: 1 2 3 4 5 6 7 8 9 10 11 12 13 14 15 16 17 18 19 20 21 22 23 24 25 26 27

000
FTUS41 KILN 031100
TAFCVG
TAF
KCVG 031129Z 0312/0418 12007KT 6SM -FZRA OVC035
     FM031500 15008KT 5SM -FZRA BR OVC025
     FM031800 20010KT 5SM -SHRA BR SCT007 OVC025
     FM032300 25011KT 3SM -SHRA BR BKN007 OVC015
     FM040600 30008KT 5SM BR VCSH OVC007=

USA.gov is the U.S. government's official web portal to all federal, state and local government web resources and services.